This is the latest recevied weather packets stored in our database for station/object OH1KK. If no packets are shown the sender has not sent any weather packets the latest 1 day(s).
| Time | Temp. | Humidity | Pressure | Rain* | Wind** | Luminosity | Snow |
|---|---|---|---|---|---|---|---|
| 1778102361 | 0° C | 77% | 1005.4 hPa | 0 mm | - | - | - |
| 1778101446 | 0° C | 76% | 1005.5 hPa | 0 mm | - | - | - |
| 1778100592 | 0.56° C | 74% | 1005.4 hPa | 0 mm | - | - | - |
| 1778099677 | 0.56° C | 74% | 1005.6 hPa | 0 mm | - | - | - |
| 1778098762 | 1.11° C | 72% | 1005.5 hPa | 0 mm | - | - | - |
| 1778084366 | 7.22° C | 50% | 1003.6 hPa | 0 mm | - | - | - |
| 1778081682 | 8.89° C | 47% | 1003.2 hPa | 0 mm | - | - | - |
| 1778080767 | 7.78° C | 48% | 1003.3 hPa | 0 mm | - | - | - |
| 1778076253 | 7.78° C | 47% | 1002.9 hPa | 0 mm | - | - | - |
| 1778069054 | 6.67° C | 54% | 1002.4 hPa | 0 mm | - | - | - |
| 1778067286 | 7.22° C | 51% | 1002.2 hPa | 0 mm | - | - | - |
| 1778065456 | 7.22° C | 51% | 1002 hPa | 0 mm | - | - | - |
| 1778063687 | 7.22° C | 49% | 1001.3 hPa | 0 mm | - | - | - |
| 1778060942 | 7.22° C | 49% | 1000.8 hPa | 0 mm | - | - | - |
| 1778060088 | 7.78° C | 48% | 1000.7 hPa | 0 mm | - | - | - |
| 1778058258 | 7.22° C | 51% | 1000.4 hPa | 0 mm | - | - | - |
| 1778054659 | 6.11° C | 51% | 1000 hPa | 0 mm | - | - | - |
| 1778052890 | 5° C | 54% | 999.4 hPa | 0 mm | - | - | - |
| 1778051975 | 5.56° C | 53% | 999.3 hPa | 0 mm | - | - | - |
| 1778049291 | 5° C | 60% | 999 hPa | 0 mm | - | - | - |
| 1778048376 | 5° C | 60% | 998.7 hPa | 0 mm | - | - | - |
| 1778046546 | 4.44° C | 62% | 998.6 hPa | 0 mm | - | - | - |
| 1778044776 | 3.33° C | 66% | 998.2 hPa | 0 mm | - | - | - |
| 1778043868 | 3.33° C | 68% | 998 hPa | 0 mm | - | - | - |
| 1778042946 | 3.33° C | 68% | 998.1 hPa | 0 mm | - | - | - |
* Rain latest hour (hover to see other rain measurements)
** Current wind speed in m/s (hover to see current wind gust speed)